KHFD/HFD METAR and TAF weather

Enter ICAO airport designator
Station Type Date Time Source
KHFD METAR 2020/04/01 23:53 UTC NOAA

KHFD 012353Z 36005KT 10SM BKN070 09/M02 A2972 RMK AO2 SLP065 T00941022 10117 20089 53004


Station Type Date Time Source
KHFD Decoded METAR 2020/04/01 23:53 UTC NOAA

HARTFORD-BRAINARD AIRPORT, CT, United States (KHFD) 41-44N 072-39W 4M
Apr 01, 2020 - 07:53 PM EDT / 2020.04.01 2353 UTC
Wind: from the N (360 degrees) at 6 MPH (5 KT):0
Visibility: 10 mile(s):0
Sky conditions: mostly cloudy
Temperature: 48.9 F (9.4 C)
Dew Point: 28.0 F (-2.2 C)
Relative Humidity: 44%
Pressure (altimeter): 29.72 in. Hg (1006 hPa)
Pressure tendency: 0.01 inches (0.4 hPa) higher than three hours ago
ob: KHFD 012353Z 36005KT 10SM BKN070 09/M02 A2972 RMK AO2 SLP065 T00941022 10117 20089 53004
cycle: 0

Station Type Date Time Source
KHFD TAF UTC NOAA

Error!

Example: see airport list